createdAt,value
2024-02-03T00:00:39.656Z,1.74
2024-02-03T00:03:06.490Z,1.65
2024-02-03T00:05:33.234Z,1.77
2024-02-03T00:07:59.937Z,1.75
2024-02-03T00:10:26.721Z,1.68
2024-02-03T00:12:53.638Z,1.66
2024-02-03T00:15:22.903Z,1.60
2024-02-03T00:17:49.877Z,1.73
2024-02-03T00:20:16.819Z,1.76
2024-02-03T00:22:47.071Z,1.75
2024-02-03T00:25:13.967Z,1.75
2024-02-03T00:27:40.766Z,1.83
2024-02-03T00:30:08.745Z,1.79
2024-02-03T00:32:35.583Z,1.73
2024-02-03T00:35:02.321Z,1.60
2024-02-03T00:37:29.108Z,1.64
2024-02-03T00:39:55.985Z,1.80
2024-02-03T00:42:22.747Z,1.72
2024-02-03T00:44:49.447Z,1.79
2024-02-03T00:47:16.292Z,1.86
2024-02-03T00:49:45.785Z,1.87
2024-02-03T00:52:12.667Z,1.89
2024-02-03T00:54:39.653Z,1.98
2024-02-03T00:57:08.871Z,1.86
2024-02-03T00:59:36.891Z,1.96
2024-02-03T01:02:04.751Z,1.94
2024-02-03T01:04:31.513Z,2.01
2024-02-03T01:07:00.380Z,2.09
2024-02-03T01:09:27.420Z,2.20
2024-02-03T01:11:55.708Z,2.16
2024-02-03T01:14:22.751Z,2.13
2024-02-03T01:16:50.051Z,2.16
2024-02-03T01:19:18.191Z,2.11
2024-02-03T01:21:45.132Z,2.15
2024-02-03T01:24:11.968Z,2.14
2024-02-03T01:26:38.718Z,2.09
2024-02-03T01:29:05.535Z,2.14
2024-02-03T01:31:32.232Z,2.13
2024-02-03T01:34:00.136Z,2.09
2024-02-03T01:36:27.112Z,1.94
2024-02-03T01:38:54.942Z,1.71
2024-02-03T01:41:21.673Z,1.77
2024-02-03T01:43:48.532Z,1.83
2024-02-03T01:46:17.728Z,1.64
2024-02-03T01:48:44.740Z,1.69
2024-02-03T01:51:13.022Z,1.79
2024-02-03T01:53:40.673Z,1.62
2024-02-03T01:56:07.964Z,1.70
2024-02-03T01:58:34.777Z,1.75
2024-02-03T02:01:01.569Z,1.67
2024-02-03T02:03:28.442Z,1.59
2024-02-03T02:05:55.284Z,1.53
2024-02-03T02:08:32.882Z,1.24
2024-02-03T02:10:59.957Z,1.25
2024-02-03T02:13:27.145Z,1.34
2024-02-03T02:15:53.998Z,1.33
2024-02-03T02:18:21.156Z,1.29
2024-02-03T02:20:48.194Z,1.11
2024-02-03T02:23:14.973Z,1.03
2024-02-03T02:25:41.671Z,0.80
2024-02-03T02:28:08.374Z,0.95
2024-02-03T02:30:35.237Z,0.85
2024-02-03T02:33:03.814Z,0.92
2024-02-03T02:35:30.626Z,0.76
2024-02-03T02:37:57.254Z,0.50
2024-02-03T02:40:23.986Z,0.36
2024-02-03T02:42:50.793Z,0.49
2024-02-03T02:45:17.649Z,0.32
2024-02-03T02:47:54.442Z,0.05
2024-02-03T02:50:21.313Z,-0.02
2024-02-03T02:52:47.993Z,-0.10
2024-02-03T02:55:15.101Z,-0.16
2024-02-03T02:57:41.938Z,-0.15
2024-02-03T03:00:11.284Z,-0.21
2024-02-03T03:02:38.498Z,-0.18
2024-02-03T03:05:05.585Z,-0.35
2024-02-03T03:07:32.440Z,-0.17
2024-02-03T03:09:59.189Z,-0.09
2024-02-03T03:12:26.476Z,-0.16
2024-02-03T03:14:53.249Z,-0.23
2024-02-03T03:17:20.040Z,-0.16
2024-02-03T03:19:47.116Z,-0.23
2024-02-03T03:22:14.855Z,-0.26
2024-02-03T03:24:43.408Z,-0.26
2024-02-03T03:27:10.307Z,-0.27
2024-02-03T03:29:38.752Z,-0.39
2024-02-03T03:32:05.791Z,-0.43
2024-02-03T03:34:32.739Z,-0.61
2024-02-03T03:36:59.506Z,-0.51
2024-02-03T03:39:26.288Z,-0.69
2024-02-03T03:41:55.080Z,-0.86
2024-02-03T03:44:22.321Z,-1.02
2024-02-03T03:46:49.147Z,-0.88
2024-02-03T03:49:15.975Z,-0.80
2024-02-03T03:51:42.777Z,-0.77
2024-02-03T03:54:09.627Z,-0.78
2024-02-03T03:56:36.810Z,-0.90
2024-02-03T03:59:03.531Z,-1.11
2024-02-03T04:01:30.228Z,-1.15
2024-02-03T04:03:58.289Z,-1.09
2024-02-03T04:06:25.357Z,-1.07
2024-02-03T04:08:52.047Z,-1.06
2024-02-03T04:11:18.811Z,-1.09
2024-02-03T04:13:46.121Z,-1.35
2024-02-03T04:16:12.885Z,-1.62
2024-02-03T04:18:39.697Z,-1.69
2024-02-03T04:21:06.476Z,-1.69
2024-02-03T04:23:33.216Z,-1.50
2024-02-03T04:26:00.045Z,-1.58
2024-02-03T04:28:26.735Z,-1.48
2024-02-03T04:30:56.441Z,-1.53
2024-02-03T04:33:23.290Z,-1.50
2024-02-03T04:35:50.078Z,-1.51
2024-02-03T04:38:16.744Z,-1.65
2024-02-03T04:40:43.413Z,-1.71
2024-02-03T04:43:10.145Z,-1.74
2024-02-03T04:45:36.910Z,-1.78
2024-02-03T04:48:03.856Z,-1.79
2024-02-03T04:50:30.585Z,-1.87
2024-02-03T04:52:58.607Z,-2.05
2024-02-03T04:55:25.472Z,-2.16
2024-02-03T04:57:52.291Z,-2.16
2024-02-03T05:00:19.407Z,-2.23
2024-02-03T05:02:46.697Z,-2.14
2024-02-03T05:05:13.474Z,-2.09
2024-02-03T05:07:40.177Z,-2.11
2024-02-03T05:10:07.253Z,-1.98
2024-02-03T05:12:34.490Z,-2.32
2024-02-03T05:15:04.921Z,-2.69
2024-02-03T05:17:32.469Z,-2.45
2024-02-03T05:19:59.190Z,-2.39
2024-02-03T05:22:25.938Z,-2.40
2024-02-03T05:24:52.784Z,-2.21
2024-02-03T05:27:20.526Z,-2.27
2024-02-03T05:29:47.430Z,-2.27
2024-02-03T05:32:14.369Z,-2.32
2024-02-03T05:34:41.215Z,-2.40
2024-02-03T05:37:08.000Z,-2.36
2024-02-03T05:39:34.727Z,-2.27
2024-02-03T05:42:01.426Z,-2.31
2024-02-03T05:44:28.110Z,-2.54
2024-02-03T05:46:54.770Z,-2.55
2024-02-03T05:49:21.509Z,-2.45
2024-02-03T05:51:48.305Z,-2.29
2024-02-03T05:54:15.079Z,-2.29
2024-02-03T05:56:42.120Z,-2.20
2024-02-03T05:59:26.455Z,-2.22
2024-02-03T06:01:56.310Z,-2.23
2024-02-03T06:04:25.428Z,-2.19
2024-02-03T06:06:52.273Z,-2.12
2024-02-03T06:09:20.128Z,-2.35
2024-02-03T06:11:46.899Z,-2.40
2024-02-03T06:14:13.582Z,-2.44
2024-02-03T06:16:40.265Z,-2.27
2024-02-03T06:19:07.049Z,-2.24
2024-02-03T06:21:34.438Z,-2.12
2024-02-03T06:24:01.236Z,-2.09
2024-02-03T06:26:31.468Z,-2.08
2024-02-03T06:28:58.752Z,-2.11
2024-02-03T06:31:27.789Z,-2.13
2024-02-03T06:33:54.833Z,-2.14
2024-02-03T06:36:23.120Z,-1.99
2024-02-03T06:38:49.817Z,-2.03
2024-02-03T06:41:19.419Z,-1.88
2024-02-03T06:43:46.180Z,-1.77
2024-02-03T06:46:14.393Z,-1.21
2024-02-03T06:48:41.290Z,-0.21
2024-02-03T06:51:07.948Z,1.30
2024-02-03T06:53:35.160Z,2.99
2024-02-03T06:56:01.862Z,4.22
2024-02-03T06:58:30.168Z,5.31
2024-02-03T07:00:57.049Z,6.18
2024-02-03T07:03:24.187Z,6.96
2024-02-03T07:05:50.878Z,7.80
2024-02-03T07:08:17.553Z,8.58
2024-02-03T07:10:44.301Z,9.16
2024-02-03T07:13:10.988Z,9.15
2024-02-03T07:15:38.043Z,10.09
2024-02-03T07:18:05.048Z,9.88
2024-02-03T07:20:33.273Z,10.71
2024-02-03T07:23:00.066Z,11.32
2024-02-03T07:25:27.925Z,11.59
2024-02-03T07:27:54.618Z,11.62
2024-02-03T07:30:21.354Z,11.55
2024-02-03T07:32:48.165Z,11.58
2024-02-03T07:35:14.979Z,10.30
2024-02-03T07:37:41.757Z,10.53
2024-02-03T07:40:09.171Z,11.55
2024-02-03T07:42:37.154Z,11.82
2024-02-03T07:45:04.201Z,10.49
2024-02-03T07:47:31.269Z,11.19
2024-02-03T07:49:57.973Z,10.95
2024-02-03T07:52:32.132Z,11.93
2024-02-03T07:55:04.723Z,12.04
2024-02-03T07:57:31.417Z,13.05
2024-02-03T07:59:58.103Z,12.76
2024-02-03T08:02:25.868Z,13.69
2024-02-03T08:04:52.715Z,10.96
2024-02-03T08:07:19.451Z,10.88
2024-02-03T08:09:47.245Z,11.16
2024-02-03T08:12:13.966Z,12.60
2024-02-03T08:14:40.682Z,12.48
2024-02-03T08:17:08.815Z,12.54
2024-02-03T08:19:38.493Z,13.54
2024-02-03T08:22:05.295Z,14.23
2024-02-03T08:24:31.987Z,13.62
2024-02-03T08:26:58.962Z,13.32
2024-02-03T08:29:26.572Z,13.08
2024-02-03T08:31:54.244Z,11.30
2024-02-03T08:34:23.797Z,13.31
2024-02-03T08:36:50.676Z,14.24
2024-02-03T08:41:47.148Z,12.75
2024-02-03T08:44:13.960Z,13.75
2024-02-03T08:46:40.646Z,14.69
2024-02-03T08:49:07.467Z,14.59
2024-02-03T08:51:34.225Z,12.99
2024-02-03T08:54:01.238Z,13.74
2024-02-03T08:56:28.920Z,12.71
2024-02-03T08:58:55.643Z,12.14
2024-02-03T09:01:22.420Z,13.17
2024-02-03T09:03:54.430Z,12.31
2024-02-03T09:06:21.493Z,12.56
2024-02-03T09:08:49.670Z,13.94
2024-02-03T09:11:18.034Z,13.92
2024-02-03T09:13:45.892Z,13.30
2024-02-03T09:16:12.742Z,13.62
2024-02-03T09:18:40.206Z,13.70
2024-02-03T09:21:11.405Z,13.77
2024-02-03T09:23:41.579Z,13.97
2024-02-03T09:26:10.234Z,12.74
2024-02-03T09:28:39.806Z,14.79
2024-02-03T09:31:07.007Z,12.47
2024-02-03T09:33:34.154Z,11.35
2024-02-03T09:36:05.266Z,10.14
2024-02-03T09:38:31.958Z,11.19
2024-02-03T09:40:59.412Z,10.05
2024-02-03T09:43:27.808Z,10.13
2024-02-03T09:45:54.980Z,10.53
2024-02-03T09:48:24.571Z,11.77
2024-02-03T09:50:52.004Z,11.66
2024-02-03T09:53:18.729Z,11.67
2024-02-03T09:55:46.047Z,12.92
2024-02-03T09:58:12.714Z,12.93
2024-02-03T10:00:39.512Z,12.61
2024-02-03T10:03:17.681Z,12.93
2024-02-03T10:05:44.421Z,13.39
2024-02-03T10:08:11.330Z,14.56
2024-02-03T10:13:17.205Z,14.00
2024-02-03T10:15:45.076Z,13.74
2024-02-03T10:18:11.852Z,14.11
2024-02-03T10:20:38.755Z,13.94
2024-02-03T10:23:08.334Z,14.06
2024-02-03T10:25:36.237Z,14.42
2024-02-03T10:28:05.199Z,14.64
2024-02-03T10:30:39.502Z,14.37
2024-02-03T10:33:07.814Z,14.57
2024-02-03T10:35:36.266Z,13.79
2024-02-03T10:38:03.471Z,14.17
2024-02-03T10:40:35.364Z,14.59
2024-02-03T10:43:03.749Z,15.29
2024-02-03T10:45:32.764Z,14.87
2024-02-03T10:48:03.581Z,15.03
2024-02-03T10:50:46.192Z,14.70
2024-02-03T10:53:38.019Z,14.48
2024-02-03T10:56:07.428Z,15.41
2024-02-03T10:58:34.722Z,15.72
2024-02-03T11:01:22.384Z,15.58
2024-02-03T11:03:50.402Z,14.90
2024-02-03T11:06:31.450Z,15.34
2024-02-03T11:09:15.088Z,15.55
2024-02-03T11:11:42.623Z,15.80
2024-02-03T11:14:17.075Z,15.78
2024-02-03T11:16:44.312Z,15.08
2024-02-03T11:19:12.791Z,16.07
2024-02-03T11:21:45.969Z,16.40
2024-02-03T11:24:12.808Z,14.64
2024-02-03T11:26:39.766Z,13.97
2024-02-03T11:29:10.689Z,13.76
2024-02-03T11:31:37.384Z,13.04
2024-02-03T11:34:04.814Z,13.91
2024-02-03T11:36:31.644Z,13.25
2024-02-03T11:38:58.511Z,12.32
2024-02-03T11:41:25.439Z,12.06
2024-02-03T11:43:52.233Z,12.33
2024-02-03T11:46:19.267Z,11.93
2024-02-03T11:48:48.525Z,11.88
2024-02-03T11:51:16.844Z,12.09
2024-02-03T11:53:44.330Z,12.01
2024-02-03T11:56:11.057Z,12.10
2024-02-03T11:58:42.831Z,11.46
2024-02-03T12:01:11.144Z,10.87
2024-02-03T12:03:38.730Z,11.09
2024-02-03T12:06:06.612Z,10.73
2024-02-03T12:08:33.878Z,10.33
2024-02-03T12:11:00.868Z,10.37
2024-02-03T12:13:37.580Z,9.49
2024-02-03T12:16:05.480Z,9.29
2024-02-03T12:18:32.423Z,9.26
2024-02-03T12:20:59.757Z,9.06
2024-02-03T12:23:29.981Z,9.07
2024-02-03T12:25:56.698Z,8.94
2024-02-03T12:28:26.112Z,8.78
2024-02-03T12:31:00.503Z,8.98
2024-02-03T12:33:27.948Z,8.92
2024-02-03T12:35:54.927Z,8.78
2024-02-03T12:38:22.780Z,8.95
2024-02-03T12:40:49.853Z,8.85
2024-02-03T12:43:16.614Z,9.10
2024-02-03T12:45:43.704Z,8.94
2024-02-03T12:48:10.501Z,8.86
2024-02-03T12:50:37.266Z,9.03
2024-02-03T12:53:04.290Z,8.83
2024-02-03T12:55:31.017Z,8.37
2024-02-03T12:57:59.889Z,8.19
2024-02-03T13:00:26.769Z,8.07
2024-02-03T13:02:56.326Z,7.90
2024-02-03T13:05:24.296Z,8.39
2024-02-03T13:07:54.501Z,8.83
2024-02-03T13:10:21.385Z,8.55
2024-02-03T13:12:48.735Z,8.43
2024-02-03T13:15:16.126Z,8.43
2024-02-03T13:17:43.904Z,8.36
2024-02-03T13:20:11.523Z,8.21
2024-02-03T13:22:38.443Z,8.30
2024-02-03T13:25:05.620Z,8.35
2024-02-03T13:27:32.767Z,8.19
2024-02-03T13:30:01.804Z,8.46
2024-02-03T13:32:28.640Z,8.46
2024-02-03T13:34:57.142Z,8.07
2024-02-03T13:37:23.961Z,8.02
2024-02-03T13:39:51.116Z,7.93
2024-02-03T13:42:17.863Z,7.79
2024-02-03T13:44:44.740Z,7.88
2024-02-03T13:47:11.581Z,7.75
2024-02-03T13:49:38.443Z,7.70
2024-02-03T13:52:06.309Z,7.37
2024-02-03T13:54:33.160Z,7.74
2024-02-03T13:56:59.938Z,7.90
2024-02-03T13:59:29.448Z,7.86
2024-02-03T14:01:56.282Z,7.91
2024-02-03T14:04:23.096Z,8.19
2024-02-03T14:06:49.949Z,8.46
2024-02-03T14:09:16.843Z,8.53
2024-02-03T14:11:50.959Z,8.69
2024-02-03T14:14:23.237Z,8.74
2024-02-03T14:16:51.714Z,8.51
2024-02-03T14:19:18.607Z,8.25
2024-02-03T14:21:47.188Z,8.50
2024-02-03T14:24:14.339Z,8.06
2024-02-03T14:26:41.932Z,8.15
2024-02-03T14:29:10.059Z,7.97
2024-02-03T14:31:36.785Z,7.83
2024-02-03T14:34:03.567Z,7.75
2024-02-03T14:36:31.643Z,7.61
2024-02-03T14:39:02.527Z,7.67
2024-02-03T14:41:29.385Z,7.27
2024-02-03T14:43:56.010Z,7.31
2024-02-03T14:46:22.703Z,7.28
2024-02-03T14:48:50.739Z,7.06
2024-02-03T14:51:17.727Z,7.20
2024-02-03T14:53:44.520Z,7.03
2024-02-03T14:56:12.249Z,7.14
2024-02-03T14:58:39.286Z,7.22
2024-02-03T15:01:13.974Z,7.27
2024-02-03T15:03:40.910Z,7.08
2024-02-03T15:06:08.028Z,6.83
2024-02-03T15:08:35.174Z,6.56
2024-02-03T15:11:02.355Z,6.78
2024-02-03T15:13:29.643Z,6.86
2024-02-03T15:15:56.406Z,6.74
2024-02-03T15:18:27.163Z,6.49
2024-02-03T15:20:54.672Z,6.19
2024-02-03T15:23:21.519Z,6.13
2024-02-03T15:25:49.346Z,6.20
2024-02-03T15:28:16.037Z,6.33
2024-02-03T15:30:42.850Z,6.33
2024-02-03T15:33:10.238Z,6.35
2024-02-03T15:35:47.639Z,6.16
2024-02-03T15:38:14.382Z,5.87
2024-02-03T15:40:41.076Z,5.88
2024-02-03T15:43:07.805Z,5.86
2024-02-03T15:45:34.565Z,5.86
2024-02-03T15:48:02.454Z,5.79
2024-02-03T15:50:31.087Z,5.72
2024-02-03T15:52:58.274Z,5.69
2024-02-03T15:55:29.623Z,5.62
2024-02-03T15:57:57.804Z,5.45
2024-02-03T16:00:26.026Z,5.41
2024-02-03T16:02:53.189Z,5.27
2024-02-03T16:05:20.576Z,5.07
2024-02-03T16:07:47.469Z,5.10
2024-02-03T16:10:14.589Z,4.99
2024-02-03T16:12:42.585Z,4.87
2024-02-03T16:15:10.512Z,4.93
2024-02-03T16:17:37.505Z,4.68
2024-02-03T16:20:06.133Z,4.45
2024-02-03T16:22:33.633Z,4.50
2024-02-03T16:25:02.099Z,4.30
2024-02-03T16:27:29.627Z,4.18
2024-02-03T16:29:57.653Z,4.09
2024-02-03T16:32:24.337Z,3.97
2024-02-03T16:34:53.464Z,3.94
2024-02-03T16:37:20.743Z,3.89
2024-02-03T16:39:47.569Z,3.82
2024-02-03T16:42:14.298Z,3.60
2024-02-03T16:44:40.983Z,3.50
2024-02-03T16:47:08.156Z,3.53
2024-02-03T16:49:35.190Z,3.28
2024-02-03T16:52:02.058Z,3.45
2024-02-03T16:54:28.814Z,3.41
2024-02-03T16:56:57.973Z,3.41
2024-02-03T16:59:25.128Z,3.26
2024-02-03T17:01:52.079Z,2.96
2024-02-03T17:04:19.250Z,2.97
2024-02-03T17:06:49.449Z,3.00
2024-02-03T17:09:18.031Z,3.10
2024-02-03T17:11:46.184Z,3.06
2024-02-03T17:14:15.243Z,3.06
2024-02-03T17:16:42.374Z,2.90
2024-02-03T17:19:09.986Z,2.80
2024-02-03T17:21:37.229Z,2.58
2024-02-03T17:24:04.593Z,2.34
2024-02-03T17:26:35.085Z,2.02
2024-02-03T17:29:03.404Z,2.19
2024-02-03T17:31:31.233Z,2.29
2024-02-03T17:33:58.040Z,2.40
2024-02-03T17:36:24.729Z,2.17
2024-02-03T17:38:52.387Z,1.97
2024-02-03T17:41:20.611Z,1.72
2024-02-03T17:43:47.593Z,1.86
2024-02-03T17:46:18.087Z,1.98
2024-02-03T17:48:45.143Z,2.03
2024-02-03T17:51:13.105Z,1.84
2024-02-03T17:53:40.608Z,2.00
2024-02-03T17:56:08.427Z,1.77
2024-02-03T17:58:35.307Z,1.81
2024-02-03T18:01:02.171Z,1.82
2024-02-03T18:03:29.138Z,1.68
2024-02-03T18:05:55.972Z,1.60
2024-02-03T18:08:22.753Z,1.48
2024-02-03T18:10:49.530Z,1.36
2024-02-03T18:13:16.206Z,1.34
2024-02-03T18:15:42.993Z,1.34
2024-02-03T18:18:12.101Z,1.33
2024-02-03T18:20:40.281Z,1.11
2024-02-03T18:23:08.434Z,1.04
2024-02-03T18:25:42.525Z,1.15
2024-02-03T18:28:09.932Z,1.09
2024-02-03T18:30:39.741Z,1.09
2024-02-03T18:33:06.874Z,0.92
2024-02-03T18:35:33.619Z,0.94
2024-02-03T18:38:02.167Z,1.05
2024-02-03T18:40:29.234Z,0.94
2024-02-03T18:42:56.884Z,0.97
2024-02-03T18:45:24.842Z,1.09
2024-02-03T18:47:53.143Z,1.19
2024-02-03T18:50:19.977Z,1.16
2024-02-03T18:52:46.700Z,1.25
2024-02-03T18:55:13.418Z,1.23
2024-02-03T18:57:40.679Z,1.33
2024-02-03T19:00:08.427Z,1.29
2024-02-03T19:02:35.162Z,1.23
2024-02-03T19:05:02.098Z,0.81
2024-02-03T19:07:31.471Z,0.82
2024-02-03T19:09:58.138Z,0.83
2024-02-03T19:12:25.245Z,0.94
2024-02-03T19:14:52.071Z,0.83
2024-02-03T19:17:18.801Z,0.92
2024-02-03T19:19:45.906Z,0.95
2024-02-03T19:22:14.311Z,0.82
2024-02-03T19:24:41.170Z,0.65
2024-02-03T19:27:07.859Z,0.66
2024-02-03T19:29:34.797Z,0.68
2024-02-03T19:32:04.726Z,0.53
2024-02-03T19:34:32.898Z,0.35
2024-02-03T19:37:00.147Z,0.39
2024-02-03T19:39:27.375Z,0.45
2024-02-03T19:41:59.157Z,0.33
2024-02-03T19:44:25.827Z,0.31
2024-02-03T19:46:52.977Z,0.20
2024-02-03T19:49:20.754Z,-0.10
2024-02-03T19:51:47.857Z,0.02
2024-02-03T19:54:14.578Z,0.18
2024-02-03T19:56:41.408Z,0.21
2024-02-03T19:59:08.883Z,0.18
2024-02-03T20:01:37.110Z,-0.02
2024-02-03T20:04:04.478Z,0.10
2024-02-03T20:06:39.695Z,0.06
2024-02-03T20:09:07.053Z,-0.01
2024-02-03T20:11:34.059Z,0.02
2024-02-03T20:14:00.831Z,0.20
2024-02-03T20:16:27.670Z,0.13
2024-02-03T20:18:57.226Z,0.34
2024-02-03T20:21:24.072Z,0.03
2024-02-03T20:23:50.789Z,-0.04
2024-02-03T20:26:19.653Z,-0.09
2024-02-03T20:28:46.705Z,0.00
2024-02-03T20:31:13.848Z,0.03
2024-02-03T20:33:41.312Z,-0.19
2024-02-03T20:36:11.389Z,-0.10
2024-02-03T20:38:40.692Z,-0.14
2024-02-03T20:41:07.928Z,-0.01
2024-02-03T20:43:36.673Z,-0.28
2024-02-03T20:46:03.622Z,-0.20
2024-02-03T20:48:30.548Z,-0.39
2024-02-03T20:50:57.582Z,-0.32
2024-02-03T20:53:32.612Z,-0.31
2024-02-03T20:55:59.428Z,-0.20
2024-02-03T20:58:26.450Z,-0.34
2024-02-03T21:00:53.551Z,-0.34
2024-02-03T21:03:20.532Z,-0.34
2024-02-03T21:05:47.453Z,-0.40
2024-02-03T21:08:17.529Z,-0.47
2024-02-03T21:10:44.546Z,-0.65
2024-02-03T21:13:13.861Z,-0.76
2024-02-03T21:15:45.163Z,-0.85
2024-02-03T21:18:16.314Z,-0.92
2024-02-03T21:20:43.487Z,-0.79
2024-02-03T21:23:13.281Z,-0.83
2024-02-03T21:25:40.181Z,-0.63
2024-02-03T21:28:07.051Z,-0.76
2024-02-03T21:30:34.415Z,-0.91
2024-02-03T21:33:01.156Z,-0.94
2024-02-03T21:35:27.821Z,-0.87
2024-02-03T21:37:55.209Z,-0.81
2024-02-03T21:40:21.865Z,-0.60
2024-02-03T21:42:48.545Z,-0.58
2024-02-03T21:45:15.429Z,-1.02
2024-02-03T21:47:42.179Z,-0.85
2024-02-03T21:50:10.173Z,-0.80
2024-02-03T21:52:39.723Z,-0.80
2024-02-03T21:55:06.993Z,-0.85
2024-02-03T21:57:33.744Z,-0.80
2024-02-03T22:00:00.744Z,-0.67
2024-02-03T22:02:27.659Z,-0.74
2024-02-03T22:04:54.548Z,-0.82
2024-02-03T22:07:23.984Z,-0.83
2024-02-03T22:09:50.831Z,-0.95
2024-02-03T22:12:17.570Z,-0.77
2024-02-03T22:14:44.250Z,-0.73
2024-02-03T22:17:11.793Z,-0.66
2024-02-03T22:19:38.606Z,-0.98
2024-02-03T22:22:06.469Z,-0.76
2024-02-03T22:24:35.244Z,-0.70
2024-02-03T22:27:02.006Z,-0.88
2024-02-03T22:29:29.867Z,-0.97
2024-02-03T22:31:58.592Z,-0.87
2024-02-03T22:34:25.816Z,-0.81
2024-02-03T22:36:52.764Z,-0.70
2024-02-03T22:39:19.896Z,-0.89
2024-02-03T22:41:46.686Z,-0.97
2024-02-03T22:44:13.469Z,-0.75
2024-02-03T22:46:40.166Z,-0.82
2024-02-03T22:49:06.929Z,-0.76
2024-02-03T22:51:34.055Z,-0.97
2024-02-03T22:54:00.754Z,-1.03
2024-02-03T22:56:27.411Z,-1.46
2024-02-03T22:58:54.186Z,-1.28
2024-02-03T23:01:22.279Z,-1.16
2024-02-03T23:03:50.030Z,-1.13
2024-02-03T23:06:17.615Z,-1.19
2024-02-03T23:08:45.837Z,-1.07
2024-02-03T23:11:13.015Z,-1.12
2024-02-03T23:13:40.936Z,-1.28
2024-02-03T23:16:08.060Z,-1.42
2024-02-03T23:18:35.279Z,-1.37
2024-02-03T23:21:05.155Z,-1.51
2024-02-03T23:23:35.873Z,-1.63
2024-02-03T23:26:03.014Z,-1.64
2024-02-03T23:28:32.387Z,-1.57
2024-02-03T23:31:02.531Z,-1.77
2024-02-03T23:33:29.365Z,-1.70
2024-02-03T23:35:56.080Z,-1.64
2024-02-03T23:38:23.646Z,-1.47
2024-02-03T23:40:50.642Z,-1.43
2024-02-03T23:43:17.811Z,-1.80
2024-02-03T23:45:44.569Z,-1.54
2024-02-03T23:48:11.340Z,-1.78
2024-02-03T23:50:38.022Z,-1.68
2024-02-03T23:53:04.962Z,-1.78
2024-02-03T23:55:31.625Z,-1.71
2024-02-03T23:57:58.611Z,-1.50
